SJV810 WIII-WIEE
Flight info
| Callsign | SJV810 |
|---|---|
| Flight time | 1h 24m |
| Altitude | 34000 |
| Route | GUDBA T6 LEBEG |
| Aircraft | A320/M-SDE3FGHIRWY/LB1 |
Departure
| Time | 2026-05-05 13:21 |
|---|---|
| Airport | Soekarno-Hatta International Airport (WIII) |
Arrival
| Time | 2026-05-05 14:45 |
|---|---|
| Airport | Minangkabau International Airport (WIEE) |
| Time | Latitude | Longitude | Altitude | Speed | Heading |
|---|---|---|---|---|---|
| 2026-05-05 13:02 | -6.12014 | 106.65304 | 47 ft | 0 kts | 212° |
| 2026-05-05 13:07 | -6.12003 | 106.65311 | 48 ft | 2 kts | 212° |
| 2026-05-05 13:07 | -6.11992 | 106.65318 | 48 ft | 2 kts | 212° |
| 2026-05-05 13:07 | -6.11980 | 106.65326 | 48 ft | 2 kts | 212° |
| 2026-05-05 13:08 | -6.11968 | 106.65333 | 48 ft | 2 kts | 212° |
| 2026-05-05 13:08 | -6.11956 | 106.65342 | 48 ft | 2 kts | 242° |
| 2026-05-05 13:08 | -6.11953 | 106.65359 | 48 ft | 2 kts | 286° |
| 2026-05-05 13:08 | -6.11957 | 106.65367 | 48 ft | 1 kts | 311° |
| 2026-05-05 13:09 | -6.11961 | 106.65372 | 48 ft | 0 kts | 308° |
| 2026-05-05 13:15 | -6.11952 | 106.65359 | 47 ft | 7 kts | 304° |
| 2026-05-05 13:15 | -6.11906 | 106.65299 | 47 ft | 12 kts | 310° |
| 2026-05-05 13:15 | -6.11834 | 106.65247 | 47 ft | 12 kts | 321° |
| 2026-05-05 13:15 | -6.11782 | 106.65180 | 48 ft | 12 kts | 270° |
| 2026-05-05 13:16 | -6.11812 | 106.65097 | 47 ft | 12 kts | 246° |
| 2026-05-05 13:16 | -6.11847 | 106.65012 | 47 ft | 13 kts | 249° |
| 2026-05-05 13:16 | -6.11880 | 106.64928 | 48 ft | 13 kts | 248° |
| 2026-05-05 13:16 | -6.11914 | 106.64841 | 48 ft | 13 kts | 248° |
| 2026-05-05 13:17 | -6.11948 | 106.64754 | 47 ft | 13 kts | 248° |
| 2026-05-05 13:17 | -6.11985 | 106.64665 | 47 ft | 13 kts | 247° |
| 2026-05-05 13:17 | -6.12020 | 106.64575 | 47 ft | 13 kts | 249° |
| 2026-05-05 13:17 | -6.12056 | 106.64484 | 48 ft | 13 kts | 248° |
| 2026-05-05 13:18 | -6.12092 | 106.64394 | 48 ft | 15 kts | 248° |
| 2026-05-05 13:18 | -6.12132 | 106.64292 | 48 ft | 15 kts | 248° |
| 2026-05-05 13:18 | -6.12173 | 106.64190 | 47 ft | 15 kts | 248° |
| 2026-05-05 13:18 | -6.12213 | 106.64088 | 47 ft | 15 kts | 249° |
| 2026-05-05 13:19 | -6.12253 | 106.63987 | 47 ft | 15 kts | 253° |
| 2026-05-05 13:19 | -6.12221 | 106.63893 | 47 ft | 15 kts | 329° |
| 2026-05-05 13:19 | -6.12126 | 106.63908 | 47 ft | 14 kts | 27° |
| 2026-05-05 13:19 | -6.12071 | 106.63959 | 47 ft | 0 kts | 66° |
| 2026-05-05 13:20 | -6.12063 | 106.63976 | 47 ft | 17 kts | 66° |
| 2026-05-05 13:20 | -6.11918 | 106.64349 | 48 ft | 93 kts | 68° |
| 2026-05-05 13:20 | -6.11594 | 106.65156 | 48 ft | 154 kts | 69° |
| 2026-05-05 13:20 | -6.11164 | 106.66242 | 443 ft | 170 kts | 69° |
| 2026-05-05 13:21 | -6.10696 | 106.67346 | 1024 ft | 175 kts | 67° |
| 2026-05-05 13:21 | -6.10051 | 106.68385 | 1676 ft | 180 kts | 43° |
| 2026-05-05 13:21 | -6.09036 | 106.69107 | 2271 ft | 184 kts | 31° |
| 2026-05-05 13:21 | -6.07878 | 106.69764 | 2694 ft | 199 kts | 30° |
| 2026-05-05 13:22 | -6.06617 | 106.70482 | 3097 ft | 216 kts | 31° |
| 2026-05-05 13:22 | -6.05239 | 106.71242 | 3466 ft | 236 kts | 21° |
| 2026-05-05 13:22 | -6.03528 | 106.71347 | 3805 ft | 260 kts | 343° |
| 2026-05-05 13:22 | -6.01975 | 106.70348 | 4320 ft | 275 kts | 307° |
| 2026-05-05 13:23 | -6.01169 | 106.68619 | 5111 ft | 278 kts | 285° |
| 2026-05-05 13:23 | -6.00699 | 106.66742 | 5971 ft | 281 kts | 284° |
| 2026-05-05 13:23 | -6.00191 | 106.64825 | 6798 ft | 285 kts | 286° |
| 2026-05-05 13:23 | -5.99605 | 106.62933 | 7627 ft | 288 kts | 288° |
| 2026-05-05 13:24 | -5.98940 | 106.61011 | 8464 ft | 291 kts | 290° |
| 2026-05-05 13:24 | -5.98238 | 106.59115 | 9278 ft | 294 kts | 291° |
| 2026-05-05 13:24 | -5.97501 | 106.57198 | 10085 ft | 297 kts | 291° |
| 2026-05-05 13:24 | -5.96732 | 106.55241 | 10720 ft | 307 kts | 292° |
| 2026-05-05 13:25 | -5.95910 | 106.53178 | 11146 ft | 323 kts | 292° |
| 2026-05-05 13:25 | -5.95065 | 106.51071 | 11828 ft | 329 kts | 292° |
| 2026-05-05 13:25 | -5.94208 | 106.48942 | 12612 ft | 331 kts | 292° |
| 2026-05-05 13:25 | -5.93340 | 106.46787 | 13356 ft | 335 kts | 292° |
| 2026-05-05 13:26 | -5.92459 | 106.44604 | 14077 ft | 339 kts | 292° |
| 2026-05-05 13:26 | -5.91574 | 106.42415 | 14777 ft | 342 kts | 292° |
| 2026-05-05 13:26 | -5.90667 | 106.40170 | 15474 ft | 346 kts | 292° |
| 2026-05-05 13:26 | -5.89764 | 106.37939 | 16142 ft | 350 kts | 292° |
| 2026-05-05 13:27 | -5.88827 | 106.35654 | 16805 ft | 353 kts | 292° |
| 2026-05-05 13:27 | -5.87888 | 106.33361 | 17446 ft | 357 kts | 292° |
| 2026-05-05 13:27 | -5.86945 | 106.31040 | 18070 ft | 361 kts | 292° |
| 2026-05-05 13:27 | -5.85994 | 106.28693 | 18679 ft | 364 kts | 292° |
| 2026-05-05 13:28 | -5.85027 | 106.26305 | 19278 ft | 367 kts | 292° |
| 2026-05-05 13:28 | -5.84069 | 106.23940 | 19855 ft | 371 kts | 292° |
| 2026-05-05 13:28 | -5.83086 | 106.21511 | 20436 ft | 374 kts | 292° |
| 2026-05-05 13:28 | -5.82102 | 106.19083 | 21003 ft | 378 kts | 292° |
| 2026-05-05 13:29 | -5.81104 | 106.16617 | 21565 ft | 381 kts | 292° |
| 2026-05-05 13:29 | -5.80098 | 106.14134 | 22115 ft | 384 kts | 292° |
| 2026-05-05 13:29 | -5.79090 | 106.11647 | 22654 ft | 388 kts | 292° |
| 2026-05-05 13:29 | -5.78070 | 106.09131 | 23191 ft | 391 kts | 293° |
| 2026-05-05 13:30 | -5.77045 | 106.06599 | 23736 ft | 393 kts | 293° |
| 2026-05-05 13:30 | -5.76008 | 106.04042 | 24252 ft | 396 kts | 293° |
| 2026-05-05 13:30 | -5.74964 | 106.01466 | 24742 ft | 399 kts | 293° |
| 2026-05-05 13:30 | -5.73911 | 105.98870 | 25222 ft | 402 kts | 293° |
| 2026-05-05 13:31 | -5.72847 | 105.96245 | 25692 ft | 406 kts | 293° |
| 2026-05-05 13:31 | -5.71777 | 105.93606 | 26151 ft | 409 kts | 293° |
| 2026-05-05 13:31 | -5.70702 | 105.90957 | 26596 ft | 411 kts | 293° |
| 2026-05-05 13:31 | -5.69616 | 105.88278 | 27033 ft | 414 kts | 293° |
| 2026-05-05 13:32 | -5.68531 | 105.85603 | 27451 ft | 417 kts | 293° |
| 2026-05-05 13:32 | -5.67428 | 105.82886 | 27855 ft | 420 kts | 293° |
| 2026-05-05 13:32 | -5.66328 | 105.80175 | 28240 ft | 422 kts | 293° |
| 2026-05-05 13:32 | -5.65211 | 105.77423 | 28612 ft | 425 kts | 293° |
| 2026-05-05 13:33 | -5.64092 | 105.74671 | 28976 ft | 427 kts | 292° |
| 2026-05-05 13:33 | -5.62960 | 105.71902 | 29518 ft | 424 kts | 292° |
| 2026-05-05 13:33 | -5.61848 | 105.69169 | 29994 ft | 422 kts | 292° |
| 2026-05-05 13:33 | -5.60730 | 105.66419 | 30323 ft | 424 kts | 292° |
| 2026-05-05 13:34 | -5.59621 | 105.63689 | 30609 ft | 426 kts | 292° |
| 2026-05-05 13:34 | -5.58489 | 105.60908 | 30861 ft | 429 kts | 292° |
| 2026-05-05 13:34 | -5.57268 | 105.58186 | 31089 ft | 432 kts | 296° |
| 2026-05-05 13:34 | -5.55875 | 105.55513 | 31422 ft | 432 kts | 299° |
| 2026-05-05 13:35 | -5.54324 | 105.52925 | 31800 ft | 430 kts | 303° |
| 2026-05-05 13:35 | -5.52636 | 105.50457 | 32160 ft | 429 kts | 306° |
| 2026-05-05 13:35 | -5.50867 | 105.48027 | 32479 ft | 429 kts | 306° |
| 2026-05-05 13:35 | -5.49092 | 105.45608 | 32744 ft | 430 kts | 306° |
| 2026-05-05 13:36 | -5.47310 | 105.43179 | 32991 ft | 432 kts | 306° |
| 2026-05-05 13:36 | -5.45537 | 105.40759 | 33236 ft | 433 kts | 306° |
| 2026-05-05 13:36 | -5.43759 | 105.38332 | 33481 ft | 434 kts | 306° |
| 2026-05-05 13:36 | -5.41956 | 105.35868 | 33722 ft | 435 kts | 306° |
| 2026-05-05 13:37 | -5.40154 | 105.33401 | 33942 ft | 436 kts | 306° |
| 2026-05-05 13:37 | -5.38387 | 105.30971 | 33986 ft | 437 kts | 306° |
| 2026-05-05 13:37 | -5.34777 | 105.26014 | 33999 ft | 437 kts | 306° |
| 2026-05-05 13:38 | -5.31173 | 105.21079 | 34001 ft | 437 kts | 306° |
| 2026-05-05 13:38 | -5.27588 | 105.16177 | 34002 ft | 437 kts | 306° |
| 2026-05-05 13:39 | -5.23977 | 105.11243 | 34002 ft | 437 kts | 306° |
| 2026-05-05 13:39 | -5.20359 | 105.06300 | 34002 ft | 437 kts | 306° |
| 2026-05-05 13:40 | -5.16752 | 105.01376 | 34002 ft | 437 kts | 306° |
| 2026-05-05 13:40 | -5.13148 | 104.96455 | 34002 ft | 437 kts | 306° |
| 2026-05-05 13:41 | -5.09556 | 104.91553 | 34002 ft | 437 kts | 306° |
| 2026-05-05 13:41 | -5.05930 | 104.86626 | 34008 ft | 437 kts | 306° |
| 2026-05-05 13:42 | -5.02340 | 104.81703 | 34003 ft | 437 kts | 306° |
| 2026-05-05 13:42 | -4.98725 | 104.76758 | 34002 ft | 437 kts | 306° |
| 2026-05-05 13:43 | -4.95127 | 104.71848 | 34002 ft | 437 kts | 306° |
| 2026-05-05 13:43 | -4.91525 | 104.66939 | 34002 ft | 437 kts | 306° |
| 2026-05-05 13:44 | -4.87892 | 104.62004 | 34002 ft | 437 kts | 306° |
| 2026-05-05 13:44 | -4.84288 | 104.57124 | 34002 ft | 437 kts | 306° |
| 2026-05-05 13:45 | -4.80656 | 104.52181 | 34002 ft | 437 kts | 306° |
| 2026-05-05 13:45 | -4.77069 | 104.47298 | 34002 ft | 437 kts | 306° |
| 2026-05-05 13:46 | -4.73438 | 104.42352 | 34002 ft | 437 kts | 306° |
| 2026-05-05 13:46 | -4.69836 | 104.37445 | 34002 ft | 437 kts | 306° |
| 2026-05-05 13:47 | -4.66248 | 104.32550 | 34002 ft | 437 kts | 306° |
| 2026-05-05 13:47 | -4.62653 | 104.27625 | 34002 ft | 437 kts | 306° |
| 2026-05-05 13:48 | -4.59054 | 104.22710 | 34002 ft | 437 kts | 306° |
| 2026-05-05 13:48 | -4.55443 | 104.17790 | 34002 ft | 437 kts | 306° |
| 2026-05-05 13:49 | -4.51858 | 104.12910 | 34002 ft | 437 kts | 306° |
| 2026-05-05 13:49 | -4.48245 | 104.07992 | 34002 ft | 437 kts | 306° |
| 2026-05-05 13:50 | -4.44618 | 104.03058 | 34002 ft | 437 kts | 306° |
| 2026-05-05 13:50 | -4.41018 | 103.98161 | 34002 ft | 437 kts | 306° |
| 2026-05-05 13:51 | -4.37397 | 103.93237 | 34002 ft | 437 kts | 306° |
| 2026-05-05 13:51 | -4.33806 | 103.88355 | 34002 ft | 437 kts | 306° |
| 2026-05-05 13:52 | -4.30177 | 103.83421 | 34002 ft | 437 kts | 306° |
| 2026-05-05 13:52 | -4.26584 | 103.78539 | 34002 ft | 437 kts | 306° |
| 2026-05-05 13:53 | -4.22970 | 103.73627 | 34002 ft | 437 kts | 306° |
| 2026-05-05 13:53 | -4.19354 | 103.68714 | 34002 ft | 437 kts | 306° |
| 2026-05-05 13:54 | -4.15749 | 103.63816 | 34002 ft | 437 kts | 306° |
| 2026-05-05 13:54 | -4.12125 | 103.58894 | 34002 ft | 437 kts | 306° |
| 2026-05-05 13:55 | -4.08530 | 103.54012 | 34002 ft | 437 kts | 306° |
| 2026-05-05 13:55 | -4.04908 | 103.49094 | 34002 ft | 437 kts | 306° |
| 2026-05-05 13:56 | -4.01261 | 103.44143 | 34002 ft | 437 kts | 306° |
| 2026-05-05 13:56 | -3.97648 | 103.39239 | 34002 ft | 437 kts | 306° |
| 2026-05-05 13:57 | -3.94034 | 103.34335 | 34002 ft | 437 kts | 306° |
| 2026-05-05 13:57 | -3.90438 | 103.29430 | 34002 ft | 437 kts | 306° |
| 2026-05-05 13:58 | -3.86819 | 103.24531 | 34002 ft | 437 kts | 307° |
| 2026-05-05 13:58 | -3.83204 | 103.19652 | 34002 ft | 437 kts | 306° |
| 2026-05-05 13:59 | -3.77745 | 103.12260 | 34002 ft | 437 kts | 306° |
| 2026-05-05 14:00 | -3.72922 | 103.05724 | 34002 ft | 437 kts | 306° |
| 2026-05-05 14:00 | -3.68725 | 103.00035 | 34002 ft | 437 kts | 306° |
| 2026-05-05 14:01 | -3.65089 | 102.95108 | 34002 ft | 437 kts | 306° |
| 2026-05-05 14:01 | -3.61483 | 102.90222 | 34002 ft | 436 kts | 306° |
| 2026-05-05 14:02 | -3.57868 | 102.85323 | 34002 ft | 436 kts | 306° |
| 2026-05-05 14:02 | -3.54269 | 102.80447 | 34002 ft | 436 kts | 306° |
| 2026-05-05 14:03 | -3.50658 | 102.75554 | 34002 ft | 436 kts | 306° |
| 2026-05-05 14:03 | -3.47074 | 102.70700 | 34002 ft | 435 kts | 306° |
| 2026-05-05 14:04 | -3.43478 | 102.65832 | 34002 ft | 435 kts | 306° |
| 2026-05-05 14:04 | -3.39862 | 102.60937 | 34002 ft | 435 kts | 306° |
| 2026-05-05 14:05 | -3.36262 | 102.56065 | 34002 ft | 435 kts | 306° |
| 2026-05-05 14:05 | -3.32673 | 102.51206 | 34002 ft | 435 kts | 306° |
| 2026-05-05 14:06 | -3.29071 | 102.46331 | 34002 ft | 435 kts | 306° |
| 2026-05-05 14:06 | -3.25457 | 102.41438 | 34002 ft | 434 kts | 306° |
| 2026-05-05 14:07 | -3.21871 | 102.36587 | 34002 ft | 434 kts | 306° |
| 2026-05-05 14:07 | -3.18278 | 102.31711 | 34002 ft | 434 kts | 306° |
| 2026-05-05 14:08 | -3.14700 | 102.26847 | 34002 ft | 434 kts | 306° |
| 2026-05-05 14:08 | -3.11117 | 102.21991 | 34002 ft | 433 kts | 306° |
| 2026-05-05 14:09 | -3.07507 | 102.17107 | 34002 ft | 433 kts | 306° |
| 2026-05-05 14:09 | -3.03928 | 102.12266 | 34002 ft | 433 kts | 306° |
| 2026-05-05 14:10 | -3.00337 | 102.07412 | 34002 ft | 433 kts | 306° |
| 2026-05-05 14:10 | -2.96746 | 102.02557 | 34002 ft | 433 kts | 306° |
| 2026-05-05 14:11 | -2.93165 | 101.97719 | 34002 ft | 433 kts | 306° |
| 2026-05-05 14:11 | -2.89561 | 101.92851 | 34002 ft | 433 kts | 306° |
| 2026-05-05 14:12 | -2.85965 | 101.88027 | 34002 ft | 433 kts | 307° |
| 2026-05-05 14:12 | -2.82349 | 101.83164 | 34002 ft | 433 kts | 306° |
| 2026-05-05 14:13 | -2.78761 | 101.78323 | 34002 ft | 432 kts | 306° |
| 2026-05-05 14:13 | -2.75177 | 101.73483 | 34002 ft | 432 kts | 306° |
| 2026-05-05 14:14 | -2.71612 | 101.68668 | 34002 ft | 432 kts | 306° |
| 2026-05-05 14:14 | -2.68023 | 101.63819 | 34002 ft | 432 kts | 306° |
| 2026-05-05 14:15 | -2.64436 | 101.58973 | 34002 ft | 432 kts | 306° |
| 2026-05-05 14:15 | -2.60848 | 101.54129 | 34002 ft | 432 kts | 306° |
| 2026-05-05 14:16 | -2.57270 | 101.49300 | 34002 ft | 432 kts | 306° |
| 2026-05-05 14:16 | -2.53674 | 101.44446 | 34002 ft | 432 kts | 306° |
| 2026-05-05 14:17 | -2.50098 | 101.39620 | 34002 ft | 432 kts | 306° |
| 2026-05-05 14:17 | -2.46510 | 101.34777 | 34002 ft | 431 kts | 306° |
| 2026-05-05 14:18 | -2.42946 | 101.29942 | 34002 ft | 431 kts | 306° |
| 2026-05-05 14:18 | -2.39383 | 101.25117 | 34002 ft | 431 kts | 306° |
| 2026-05-05 14:19 | -2.35799 | 101.20275 | 34002 ft | 431 kts | 306° |
| 2026-05-05 14:19 | -2.34022 | 101.17876 | 33880 ft | 433 kts | 306° |
| 2026-05-05 14:19 | -2.32214 | 101.15436 | 33208 ft | 440 kts | 306° |
| 2026-05-05 14:20 | -2.30381 | 101.12962 | 32366 ft | 445 kts | 306° |
| 2026-05-05 14:20 | -2.28533 | 101.10468 | 31622 ft | 446 kts | 306° |
| 2026-05-05 14:20 | -2.26689 | 101.07980 | 30930 ft | 447 kts | 306° |
| 2026-05-05 14:20 | -2.24841 | 101.05486 | 30247 ft | 446 kts | 306° |
| 2026-05-05 14:21 | -2.22992 | 101.02992 | 29631 ft | 444 kts | 306° |
| 2026-05-05 14:21 | -2.21183 | 101.00551 | 29200 ft | 438 kts | 306° |
| 2026-05-05 14:21 | -2.19368 | 100.98103 | 28758 ft | 433 kts | 306° |
| 2026-05-05 14:21 | -2.17578 | 100.95690 | 28318 ft | 427 kts | 306° |
| 2026-05-05 14:22 | -2.15812 | 100.93308 | 27880 ft | 423 kts | 306° |
| 2026-05-05 14:22 | -2.14083 | 100.90977 | 27450 ft | 418 kts | 306° |
| 2026-05-05 14:22 | -2.12351 | 100.88643 | 27018 ft | 414 kts | 306° |
| 2026-05-05 14:22 | -2.10649 | 100.86350 | 26591 ft | 410 kts | 306° |
| 2026-05-05 14:23 | -2.08973 | 100.84090 | 26168 ft | 406 kts | 306° |
| 2026-05-05 14:23 | -2.07278 | 100.81806 | 25739 ft | 402 kts | 306° |
| 2026-05-05 14:23 | -2.05633 | 100.79589 | 25321 ft | 399 kts | 306° |
| 2026-05-05 14:23 | -2.03970 | 100.77348 | 24894 ft | 395 kts | 306° |
| 2026-05-05 14:24 | -2.02335 | 100.75145 | 24474 ft | 392 kts | 306° |
| 2026-05-05 14:24 | -2.00718 | 100.72967 | 24056 ft | 389 kts | 306° |
| 2026-05-05 14:24 | -1.99111 | 100.70801 | 23638 ft | 386 kts | 306° |
| 2026-05-05 14:24 | -1.97530 | 100.68672 | 23228 ft | 383 kts | 306° |
| 2026-05-05 14:25 | -1.95928 | 100.66516 | 22809 ft | 381 kts | 306° |
| 2026-05-05 14:25 | -1.94353 | 100.64394 | 22397 ft | 378 kts | 306° |
| 2026-05-05 14:25 | -1.92798 | 100.62299 | 21987 ft | 375 kts | 306° |
| 2026-05-05 14:25 | -1.91249 | 100.60211 | 21578 ft | 372 kts | 306° |
| 2026-05-05 14:26 | -1.89612 | 100.58230 | 21146 ft | 370 kts | 317° |
| 2026-05-05 14:26 | -1.87543 | 100.56722 | 20729 ft | 367 kts | 332° |
| 2026-05-05 14:26 | -1.85175 | 100.55810 | 20328 ft | 364 kts | 344° |
| 2026-05-05 14:26 | -1.82737 | 100.55163 | 19933 ft | 361 kts | 346° |
| 2026-05-05 14:27 | -1.80301 | 100.54550 | 19534 ft | 359 kts | 346° |
| 2026-05-05 14:27 | -1.77875 | 100.53938 | 19132 ft | 356 kts | 346° |
| 2026-05-05 14:27 | -1.75501 | 100.53329 | 18739 ft | 354 kts | 345° |
| 2026-05-05 14:27 | -1.73116 | 100.52711 | 18344 ft | 351 kts | 345° |
| 2026-05-05 14:28 | -1.70762 | 100.52096 | 17952 ft | 349 kts | 345° |
| 2026-05-05 14:28 | -1.68432 | 100.51485 | 17563 ft | 347 kts | 345° |
| 2026-05-05 14:28 | -1.66079 | 100.50867 | 17169 ft | 345 kts | 345° |
| 2026-05-05 14:28 | -1.63794 | 100.50266 | 16786 ft | 342 kts | 345° |
| 2026-05-05 14:29 | -1.61487 | 100.49659 | 16397 ft | 340 kts | 345° |
| 2026-05-05 14:29 | -1.59196 | 100.49056 | 16012 ft | 338 kts | 345° |
| 2026-05-05 14:29 | -1.56925 | 100.48458 | 15629 ft | 336 kts | 345° |
| 2026-05-05 14:29 | -1.54670 | 100.47865 | 15249 ft | 334 kts | 345° |
| 2026-05-05 14:30 | -1.52435 | 100.47276 | 14872 ft | 332 kts | 345° |
| 2026-05-05 14:30 | -1.50200 | 100.46687 | 14494 ft | 330 kts | 345° |
| 2026-05-05 14:30 | -1.47989 | 100.46105 | 14119 ft | 328 kts | 345° |
| 2026-05-05 14:30 | -1.45775 | 100.45521 | 13742 ft | 326 kts | 345° |
| 2026-05-05 14:31 | -1.43577 | 100.44943 | 13369 ft | 325 kts | 345° |
| 2026-05-05 14:31 | -1.41414 | 100.44373 | 13001 ft | 323 kts | 345° |
| 2026-05-05 14:31 | -1.39227 | 100.43796 | 12621 ft | 321 kts | 345° |
| 2026-05-05 14:31 | -1.37067 | 100.43227 | 12247 ft | 319 kts | 345° |
| 2026-05-05 14:32 | -1.34933 | 100.42664 | 11879 ft | 318 kts | 345° |
| 2026-05-05 14:32 | -1.32801 | 100.42102 | 11513 ft | 316 kts | 345° |
| 2026-05-05 14:32 | -1.30667 | 100.41539 | 11146 ft | 314 kts | 345° |
| 2026-05-05 14:32 | -1.28575 | 100.40987 | 10787 ft | 312 kts | 345° |
| 2026-05-05 14:33 | -1.26473 | 100.40434 | 10427 ft | 310 kts | 345° |
| 2026-05-05 14:33 | -1.24395 | 100.39886 | 10207 ft | 302 kts | 345° |
| 2026-05-05 14:33 | -1.22446 | 100.39373 | 10179 ft | 286 kts | 345° |
| 2026-05-05 14:33 | -1.20507 | 100.38838 | 9968 ft | 287 kts | 340° |
| 2026-05-05 14:34 | -1.18753 | 100.37932 | 9633 ft | 285 kts | 323° |
| 2026-05-05 14:34 | -1.17295 | 100.36616 | 9319 ft | 282 kts | 314° |
| 2026-05-05 14:34 | -1.15949 | 100.35186 | 9003 ft | 280 kts | 313° |
| 2026-05-05 14:34 | -1.14641 | 100.33763 | 8695 ft | 277 kts | 313° |
| 2026-05-05 14:35 | -1.13326 | 100.32334 | 8387 ft | 275 kts | 313° |
| 2026-05-05 14:35 | -1.12028 | 100.30939 | 8085 ft | 273 kts | 313° |
| 2026-05-05 14:35 | -1.10731 | 100.29558 | 7786 ft | 270 kts | 313° |
| 2026-05-05 14:35 | -1.09449 | 100.28200 | 7491 ft | 268 kts | 313° |
| 2026-05-05 14:36 | -1.08160 | 100.26838 | 7195 ft | 266 kts | 313° |
| 2026-05-05 14:36 | -1.06892 | 100.25499 | 6904 ft | 264 kts | 313° |
| 2026-05-05 14:36 | -1.05644 | 100.24182 | 6616 ft | 262 kts | 313° |
| 2026-05-05 14:36 | -1.04375 | 100.22842 | 6325 ft | 260 kts | 313° |
| 2026-05-05 14:37 | -1.03129 | 100.21528 | 6039 ft | 259 kts | 314° |
| 2026-05-05 14:37 | -1.01697 | 100.20465 | 5717 ft | 258 kts | 338° |
| 2026-05-05 14:37 | -1.00597 | 100.20175 | 5526 ft | 257 kts | 355° |
| 2026-05-05 14:37 | -0.98848 | 100.20417 | 5229 ft | 254 kts | 24° |
| 2026-05-05 14:38 | -0.97464 | 100.21478 | 4992 ft | 250 kts | 54° |
| 2026-05-05 14:38 | -0.96815 | 100.23105 | 4823 ft | 261 kts | 85° |
| 2026-05-05 14:38 | -0.97008 | 100.24934 | 4630 ft | 265 kts | 108° |
| 2026-05-05 14:38 | -0.97681 | 100.26646 | 4368 ft | 264 kts | 112° |
| 2026-05-05 14:39 | -0.98333 | 100.28346 | 4068 ft | 263 kts | 109° |
| 2026-05-05 14:39 | -0.98845 | 100.30117 | 3755 ft | 262 kts | 102° |
| 2026-05-05 14:39 | -0.99075 | 100.31908 | 3494 ft | 258 kts | 91° |
| 2026-05-05 14:39 | -0.98989 | 100.33680 | 3429 ft | 245 kts | 80° |
| 2026-05-05 14:40 | -0.98290 | 100.35181 | 3239 ft | 237 kts | 43° |
| 2026-05-05 14:40 | -0.96866 | 100.35880 | 3133 ft | 225 kts | 4° |
| 2026-05-05 14:40 | -0.95361 | 100.35720 | 3125 ft | 214 kts | 342° |
| 2026-05-05 14:40 | -0.94006 | 100.35194 | 3023 ft | 208 kts | 335° |
| 2026-05-05 14:41 | -0.92702 | 100.34566 | 2774 ft | 207 kts | 334° |
| 2026-05-05 14:41 | -0.91403 | 100.33935 | 2496 ft | 206 kts | 334° |
| 2026-05-05 14:41 | -0.90136 | 100.33341 | 2318 ft | 192 kts | 335° |
| 2026-05-05 14:41 | -0.88931 | 100.32792 | 2016 ft | 183 kts | 335° |
| 2026-05-05 14:42 | -0.87805 | 100.32282 | 1778 ft | 172 kts | 335° |
| 2026-05-05 14:42 | -0.86753 | 100.31800 | 1528 ft | 159 kts | 335° |
| 2026-05-05 14:42 | -0.85782 | 100.31353 | 1291 ft | 147 kts | 335° |
| 2026-05-05 14:42 | -0.84870 | 100.30933 | 1097 ft | 141 kts | 335° |
| 2026-05-05 14:43 | -0.83982 | 100.30523 | 928 ft | 141 kts | 335° |
| 2026-05-05 14:43 | -0.83081 | 100.30108 | 749 ft | 141 kts | 335° |
| 2026-05-05 14:43 | -0.82200 | 100.29701 | 566 ft | 140 kts | 335° |
| 2026-05-05 14:43 | -0.81305 | 100.29290 | 374 ft | 140 kts | 335° |
| 2026-05-05 14:44 | -0.80429 | 100.28882 | 183 ft | 139 kts | 335° |
| 2026-05-05 14:44 | -0.79534 | 100.28472 | 42 ft | 137 kts | 335° |
| 2026-05-05 14:44 | -0.78770 | 100.28121 | 38 ft | 98 kts | 335° |
| 2026-05-05 14:44 | -0.78301 | 100.27903 | 46 ft | 50 kts | 335° |
| 2026-05-05 14:45 | -0.78181 | 100.27850 | 48 ft | 13 kts | 230° |
| 2026-05-05 14:45 | -0.78251 | 100.27881 | 47 ft | 12 kts | 153° |
| 2026-05-05 14:45 | -0.78337 | 100.27921 | 46 ft | 16 kts | 155° |
| 2026-05-05 14:45 | -0.78458 | 100.27976 | 45 ft | 21 kts | 155° |
| 2026-05-05 14:46 | -0.78570 | 100.28038 | 42 ft | 15 kts | 126° |
| 2026-05-05 14:46 | -0.78558 | 100.28117 | 41 ft | 9 kts | 64° |
| 2026-05-05 14:46 | -0.78528 | 100.28181 | 41 ft | 10 kts | 64° |
| 2026-05-05 14:46 | -0.78497 | 100.28250 | 40 ft | 11 kts | 65° |
| 2026-05-05 14:47 | -0.78505 | 100.28327 | 38 ft | 13 kts | 143° |
| 2026-05-05 14:47 | -0.78591 | 100.28371 | 38 ft | 13 kts | 156° |
| 2026-05-05 14:47 | -0.78662 | 100.28404 | 37 ft | 6 kts | 143° |
| 2026-05-05 14:47 | -0.78650 | 100.28441 | 36 ft | 7 kts | 61° |
| 2026-05-05 14:48 | -0.78641 | 100.28458 | 36 ft | 3 kts | 67° |
| 2026-05-05 14:48 | -0.78628 | 100.28487 | 36 ft | 5 kts | 65° |
| 2026-05-05 14:48 | -0.78624 | 100.28496 | 36 ft | 0 kts | 65° |